Time;durP1;ratioP1;P1;durP2;ratioP2;P2;SDS_P1;SDS_P2;PMS_P1;PMS_P2;Temp;Humidity;BMP_temperature;BMP_pressure;BME280_temperature;BME280_humidity;BME280_pressure;Samples;Min_cycle;Max_cycle;Signal;HPM_P1;HPM_P2
2022/03/22 04:00:58;;;;;;;56.38;28.75;;;5.50;99.90;;;;;;5835196;22;20053;-87
2022/03/22 04:03:38;;;;;;;59.83;28.50;;;5.40;99.90;;;;;;5018648;28;20109;-88
2022/03/22 04:06:04;;;;;;;63.88;29.83;;;5.40;99.90;;;;;;5018539;28;20084;-85
2022/03/22 04:08:43;;;;;;;58.60;29.95;;;5.40;99.90;;;;;;5019235;28;20133;-88
2022/03/22 04:11:14;;;;;;;61.13;30.13;;;5.40;99.90;;;;;;5019044;28;20041;-90
2022/03/22 04:13:45;;;;;;;59.58;30.25;;;5.40;99.90;;;;;;5019462;28;20041;-89
2022/03/22 04:16:21;;;;;;;61.60;28.70;;;5.40;99.90;;;;;;5019267;28;20045;-87
2022/03/22 04:19:00;;;;;;;;;;;;;;;;;;;;;
2022/03/22 04:21:39;;;;;;;58.70;29.85;;;5.40;99.90;;;;;;5018368;28;20056;-89
2022/03/22 04:24:12;;;;;;;53.55;26.77;;;5.40;99.90;;;;;;5001668;28;20104;-85
2022/03/22 04:26:43;;;;;;;56.67;27.52;;;5.40;99.90;;;;;;5017371;28;20076;-86
2022/03/22 04:34:52;;;;;;;61.20;29.08;;;5.40;99.90;;;;;;5018306;28;20077;-88
2022/03/22 04:37:24;;;;;;;59.28;29.48;;;5.30;99.90;;;;;;5018917;28;20049;-89
2022/03/22 04:40:16;;;;;;;;;;;;;;;;;;;;;
2022/03/22 04:43:24;;;;;;;;;;;;;;;;;;;;;
2022/03/22 04:45:56;;;;;;;62.58;30.95;;;5.30;99.90;;;;;;5016407;28;20057;-87
2022/03/22 04:48:22;;;;;;;59.40;31.08;;;5.30;99.90;;;;;;5001878;28;20041;-88
2022/03/22 04:56:54;;;;;;;63.78;30.98;;;5.30;99.90;;;;;;5019477;28;20155;-87
2022/03/22 04:59:22;;;;;;;63.75;31.50;;;5.30;99.90;;;;;;5003909;28;20045;-86
2022/03/22 05:06:35;;;;;;;;;;;;;;;;;;;;;
2022/03/22 05:08:19;;;;;;;58.97;29.20;;;5.20;99.90;;;;;;5002838;28;20600;-86
2022/03/22 05:11:45;;;;;;;62.03;31.15;;;5.20;99.90;;;;;;5017551;28;20049;-87
2022/03/22 05:14:16;;;;;;;58.60;28.25;;;5.20;99.90;;;;;;5017311;28;20087;-86
2022/03/22 05:17:30;;;;;;;67.07;31.85;;;5.20;99.90;;;;;;5018287;28;20037;-86
2022/03/22 05:19:59;;;;;;;63.03;31.45;;;5.20;99.90;;;;;;4997697;28;20362;-85
2022/03/22 05:22:39;;;;;;;64.60;32.60;;;5.20;99.90;;;;;;5012007;28;20046;-87
2022/03/22 05:25:47;;;;;;;;;;;;;;;;;;;;;
2022/03/22 05:28:15;;;;;;;66.22;31.60;;;5.10;99.90;;;;;;4997838;28;20069;-86
2022/03/22 05:30:47;;;;;;;62.35;30.75;;;5.10;99.90;;;;;;4980713;28;20078;-89
2022/03/22 05:33:18;;;;;;;68.53;33.63;;;5.10;99.90;;;;;;4983624;28;20046;-87
2022/03/22 05:36:16;;;;;;;;;;;;;;;;;;;;;
2022/03/22 05:39:26;;;;;;;69.03;31.67;;;5.10;99.90;;;;;;4998867;28;20489;-87
2022/03/22 05:41:56;;;;;;;64.20;33.17;;;5.10;99.90;;;;;;4976834;28;20057;-86
2022/03/22 05:44:32;;;;;;;;;;;;;;;;;;;;;
2022/03/22 05:47:24;;;;;;;64.47;32.58;;;5.10;99.90;;;;;;4997652;28;20060;-86
2022/03/22 05:50:03;;;;;;;;;;;;;;;;;;;;;
2022/03/22 05:52:32;;;;;;;60.28;32.85;;;5.10;99.90;;;;;;5014216;28;20120;-87
2022/03/22 06:02:45;;;;;;;68.20;33.00;;;5.20;99.90;;;;;;4935879;29;20555;-90
2022/03/22 06:05:24;;;;;;;;;;;;;;;;;;;;;
2022/03/22 06:08:03;;;;;;;68.72;32.67;;;5.30;99.90;;;;;;4976060;28;20061;-87
2022/03/22 06:10:46;;;;;;;;;;;;;;;;;;;;;
2022/03/22 06:13:12;;;;;;;62.97;32.70;;;5.30;99.90;;;;;;4977122;28;20058;-85
2022/03/22 06:15:43;;;;;;;65.78;33.75;;;5.30;99.90;;;;;;4977318;28;20126;-84
2022/03/22 06:18:14;;;;;;;64.75;32.40;;;5.30;99.90;;;;;;4976308;28;20538;-85
2022/03/22 06:20:41;;;;;;;60.92;31.75;;;5.40;99.90;;;;;;4976272;28;20054;-87
2022/03/22 06:23:13;;;;;;;64.32;32.08;;;5.30;99.90;;;;;;4976877;28;20121;-87
2022/03/22 06:25:51;;;;;;;64.93;33.08;;;5.30;99.90;;;;;;4979003;28;20058;-86
2022/03/22 06:28:20;;;;;;;63.88;31.52;;;5.40;99.90;;;;;;4964969;28;20096;-86
2022/03/22 06:31:01;;;;;;;;;;;;;;;;;;;;;
2022/03/22 06:36:48;;;;;;;64.85;30.73;;;5.50;99.90;;;;;;4995275;28;20046;-80
2022/03/22 06:39:14;;;;;;;64.18;31.63;;;5.50;99.90;;;;;;5000366;28;20524;-84
2022/03/22 06:41:39;;;;;;;60.17;32.30;;;5.60;99.90;;;;;;4984368;28;20050;-84
2022/03/22 06:44:05;;;;;;;60.10;31.35;;;5.60;99.90;;;;;;5000004;28;20475;-86
2022/03/22 06:46:32;;;;;;;65.95;33.50;;;5.60;99.90;;;;;;5000936;28;20041;-85
2022/03/22 06:48:58;;;;;;;62.25;31.08;;;5.60;99.90;;;;;;5000152;28;20050;-84
2022/03/22 06:51:23;;;;;;;59.65;32.58;;;5.70;99.90;;;;;;5000260;28;20045;-86
2022/03/22 06:53:49;;;;;;;61.67;32.90;;;5.70;99.90;;;;;;5000381;28;20137;-85
2022/03/22 06:56:15;;;;;;;59.30;31.67;;;5.80;99.90;;;;;;4984163;28;20045;-85
2022/03/22 06:58:40;;;;;;;60.90;32.15;;;5.90;99.90;;;;;;4985427;28;20054;-85
2022/03/22 07:01:06;;;;;;;58.42;30.63;;;6.00;99.90;;;;;;4999706;28;20038;-84
2022/03/22 07:03:32;;;;;;;62.80;32.20;;;6.10;99.90;;;;;;4999832;28;20046;-89
2022/03/22 07:05:58;;;;;;;62.70;32.08;;;6.20;99.90;;;;;;5000088;28;20048;-84
2022/03/22 07:08:23;;;;;;;58.53;31.50;;;6.30;99.90;;;;;;4999857;28;20037;-85
2022/03/22 07:13:34;;;;;;;58.33;31.65;;;6.60;99.90;;;;;;4999541;28;20073;-89
2022/03/22 07:16:00;;;;;;;57.28;30.75;;;6.70;99.90;;;;;;4983608;28;20060;-87
2022/03/22 07:18:26;;;;;;;57.95;30.63;;;6.90;99.90;;;;;;4999341;28;20080;-83
2022/03/22 07:20:52;;;;;;;56.35;30.95;;;7.00;99.90;;;;;;4983314;28;20049;-88
2022/03/22 07:23:17;;;;;;;57.83;31.02;;;7.20;99.90;;;;;;4999585;28;20041;-87
2022/03/22 07:25:43;;;;;;;53.63;29.70;;;7.40;99.90;;;;;;5017303;28;20087;-85
2022/03/22 07:28:08;;;;;;;52.30;29.73;;;7.60;99.90;;;;;;5017361;28;20049;-83
2022/03/22 07:30:34;;;;;;;53.00;28.85;;;7.80;99.90;;;;;;4999676;28;20420;-89
2022/03/22 07:32:59;;;;;;;52.15;28.80;;;7.90;99.90;;;;;;4999509;28;20042;-87
2022/03/22 07:35:25;;;;;;;56.10;29.77;;;8.10;99.90;;;;;;4999583;28;20034;-89
2022/03/22 07:37:52;;;;;;;48.60;27.55;;;8.20;99.90;;;;;;4999163;28;20038;-87
2022/03/22 07:40:18;;;;;;;56.92;29.25;;;8.30;99.90;;;;;;5017055;28;20052;-86
2022/03/22 07:42:44;;;;;;;49.95;26.50;;;8.40;99.90;;;;;;4998661;28;20053;-86
2022/03/22 07:45:11;;;;;;;55.42;29.27;;;8.60;99.90;;;;;;5017065;28;20038;-79
2022/03/22 07:47:37;;;;;;;50.25;27.30;;;8.70;99.90;;;;;;4998344;28;20074;-87
2022/03/22 07:55:16;;;;;;;47.22;26.98;;;9.00;99.90;;;;;;4995098;28;20450;-86
2022/03/22 08:17:13;;;;;;;48.42;26.95;;;10.00;99.90;;;;;;4890100;26;20062;-87
2022/03/22 08:20:27;;;;;;;48.33;26.23;;;10.10;99.90;;;;;;4979110;28;20486;-84
2022/03/22 08:23:11;;;;;;;47.25;27.17;;;10.20;99.90;;;;;;4959565;28;20042;-86
2022/03/22 13:06:21;;;;;;;31.02;18.25;;;22.40;67.40;;;;;;5136048;22;20437;-84
2022/03/22 13:11:32;;;;;;;25.83;16.67;;;23.00;65.10;;;;;;5033380;28;20045;-84
2022/03/22 13:17:18;;;;;;;28.92;17.52;;;23.70;62.50;;;;;;5014294;28;20055;-82
2022/03/22 13:19:45;;;;;;;29.25;17.83;;;23.80;61.30;;;;;;5033718;28;20479;-83
2022/03/22 13:22:21;;;;;;;28.40;17.15;;;23.90;59.50;;;;;;5033262;28;20045;-85
2022/03/22 13:24:48;;;;;;;28.83;17.40;;;24.10;57.70;;;;;;5017056;28;20072;-85
2022/03/22 13:27:23;;;;;;;28.63;17.10;;;24.30;57.40;;;;;;5016687;28;20567;-83
2022/03/22 13:29:49;;;;;;;30.27;18.08;;;24.20;56.70;;;;;;5017693;28;20120;-88
2022/03/22 15:00:32;;;;;;;;;;;;;;;;;;;;;
2022/03/22 15:03:08;;;;;;;24.40;16.35;;;23.90;51.70;;;;;;4985131;28;20406;-85
2022/03/22 15:05:59;;;;;;;28.20;16.70;;;23.70;52.10;;;;;;4996472;28;20046;-85
2022/03/22 15:08:33;;;;;;;29.33;16.90;;;23.60;51.80;;;;;;4980350;28;20590;-84
2022/03/22 15:15:19;;;;;;;27.73;16.80;;;23.50;51.10;;;;;;4998308;28;20133;-84
2022/03/22 15:18:22;;;;;;;27.53;16.93;;;23.40;50.90;;;;;;4996244;28;20151;-85
2022/03/22 15:20:53;;;;;;;28.08;16.02;;;23.50;51.10;;;;;;4980666;28;20490;-85
2022/03/22 15:24:10;;;;;;;;;;;;;;;;;;;;;
2022/03/22 15:26:36;;;;;;;25.33;15.20;;;23.50;51.30;;;;;;4995248;28;20046;-85
2022/03/22 15:29:13;;;;;;;25.88;15.02;;;23.20;52.00;;;;;;4980267;28;20149;-84
2022/03/22 15:31:41;;;;;;;26.27;14.93;;;23.20;52.10;;;;;;4997043;28;20506;-85
2022/03/22 15:34:07;;;;;;;25.98;16.05;;;23.10;52.00;;;;;;4999268;28;20046;-85
2022/03/22 16:07:49;;;;;;;23.95;13.43;;;23.10;51.60;;;;;;5036161;28;20440;-84
2022/03/22 16:11:31;;;;;;;;;;;;;;;;;;;;;
2022/03/22 16:14:00;;;;;;;29.05;14.25;;;23.20;51.00;;;;;;4963145;28;20548;-85
2022/03/22 16:16:29;;;;;;;23.02;14.00;;;23.30;51.20;;;;;;4999104;28;20038;-85
2022/03/22 16:18:55;;;;;;;22.63;14.43;;;23.30;50.90;;;;;;4998837;28;20129;-86
2022/03/22 16:21:43;;;;;;;26.23;14.43;;;23.20;50.80;;;;;;5015026;28;20116;-85
2022/03/22 16:24:10;;;;;;;25.83;14.43;;;23.20;50.40;;;;;;4953789;28;20132;-86
2022/03/22 16:26:39;;;;;;;22.52;14.45;;;23.10;50.70;;;;;;5015364;28;20034;-85
2022/03/22 16:38:19;;;;;;;27.75;14.23;;;22.40;51.30;;;;;;4939404;29;20047;-83
2022/03/22 16:40:46;;;;;;;25.15;13.93;;;22.10;51.40;;;;;;4939229;29;20086;-84
2022/03/22 16:43:12;;;;;;;23.92;13.90;;;21.90;52.20;;;;;;4940246;29;20051;-84
2022/03/22 16:45:39;;;;;;;25.02;13.95;;;21.60;52.70;;;;;;4939239;29;20110;-85
2022/03/22 16:48:13;;;;;;;25.67;14.50;;;21.40;53.50;;;;;;4939161;29;20123;-85
2022/03/22 16:50:47;;;;;;;27.02;14.70;;;21.20;53.70;;;;;;4955552;29;20471;-84
2022/03/22 16:53:19;;;;;;;26.13;14.93;;;21.00;54.30;;;;;;4923271;29;20106;-84
2022/03/22 16:55:45;;;;;;;24.35;14.18;;;20.80;54.60;;;;;;4943312;28;20060;-85
2022/03/22 16:58:11;;;;;;;24.88;14.38;;;20.70;55.60;;;;;;4997835;28;20030;-85
2022/03/22 17:00:37;;;;;;;23.88;13.73;;;20.50;55.50;;;;;;5014152;28;20042;-84
2022/03/22 17:03:02;;;;;;;23.40;13.52;;;20.50;56.00;;;;;;5014861;28;20111;-85
2022/03/22 17:05:28;;;;;;;22.67;13.88;;;20.30;56.10;;;;;;5013418;28;20045;-84
2022/03/22 17:07:55;;;;;;;27.05;14.02;;;20.10;56.30;;;;;;5015887;28;20041;-85
2022/03/22 17:10:20;;;;;;;28.27;14.48;;;20.00;56.80;;;;;;5013518;28;20050;-83
2022/03/22 17:12:46;;;;;;;28.15;13.95;;;19.90;57.50;;;;;;5015675;28;20052;-83
2022/03/22 17:15:11;;;;;;;26.40;14.52;;;19.70;57.70;;;;;;5015297;28;20393;-85
2022/03/22 17:17:37;;;;;;;28.98;15.93;;;19.60;58.30;;;;;;5015569;28;20037;-86
2022/03/22 17:20:07;;;;;;;22.17;13.55;;;19.50;58.90;;;;;;5014167;28;20379;-86
2022/03/22 17:22:33;;;;;;;22.63;14.68;;;19.40;59.50;;;;;;5014653;28;20041;-84
2022/03/22 17:25:05;;;;;;;28.83;14.38;;;19.30;59.80;;;;;;5014378;28;20119;-83
2022/03/22 17:27:31;;;;;;;26.30;14.45;;;19.20;60.60;;;;;;5015423;28;20038;-84
2022/03/22 17:29:57;;;;;;;25.13;13.93;;;19.20;60.70;;;;;;4997602;28;20458;-83
2022/03/22 17:32:24;;;;;;;22.52;14.55;;;19.00;61.40;;;;;;4997530;28;20044;-85
2022/03/22 17:34:53;;;;;;;25.10;14.23;;;18.90;61.90;;;;;;4997186;28;20454;-82
2022/03/22 17:37:19;;;;;;;24.17;14.10;;;18.70;62.00;;;;;;4997617;28;20030;-84
2022/03/22 17:39:44;;;;;;;26.20;14.77;;;18.60;62.50;;;;;;5013866;28;20532;-82
2022/03/22 17:42:10;;;;;;;28.20;15.45;;;18.50;63.00;;;;;;4997434;28;20042;-82
2022/03/22 17:44:36;;;;;;;25.38;14.35;;;18.50;63.80;;;;;;5013557;28;20046;-85
2022/03/22 17:47:02;;;;;;;27.83;15.63;;;18.40;64.50;;;;;;5013274;28;20046;-84
2022/03/22 17:49:28;;;;;;;27.30;14.88;;;18.30;65.30;;;;;;5013635;28;20049;-83
2022/03/22 17:51:54;;;;;;;32.15;16.00;;;18.20;66.00;;;;;;5013768;28;20382;-85
2022/03/22 17:54:20;;;;;;;28.40;14.45;;;18.10;66.10;;;;;;5012794;28;20038;-83
2022/03/22 17:56:45;;;;;;;28.35;14.73;;;17.90;67.30;;;;;;5013178;28;20108;-86
2022/03/22 17:59:11;;;;;;;25.27;13.82;;;17.70;67.90;;;;;;5015311;28;20034;-86
2022/03/22 18:01:37;;;;;;;25.92;14.05;;;17.60;68.60;;;;;;5015207;28;20042;-84
2022/03/22 18:04:02;;;;;;;28.02;14.18;;;17.50;70.50;;;;;;4998061;28;20045;-85
2022/03/22 18:06:28;;;;;;;25.88;14.40;;;17.30;71.00;;;;;;5015302;28;20049;-82
2022/03/22 18:08:54;;;;;;;29.58;14.77;;;17.20;71.60;;;;;;5013063;28;20505;-85
2022/03/22 18:14:04;;;;;;;24.95;13.32;;;17.10;72.90;;;;;;5014097;28;20054;-84
2022/03/22 18:16:30;;;;;;;30.40;14.50;;;16.90;75.30;;;;;;4996715;28;20045;-84
2022/03/22 18:18:56;;;;;;;25.38;14.93;;;16.70;78.10;;;;;;4997202;28;20037;-82
2022/03/22 18:21:22;;;;;;;26.88;14.77;;;16.60;79.50;;;;;;4998042;28;20041;-83
2022/03/22 18:23:50;;;;;;;27.08;14.98;;;16.50;80.00;;;;;;4999947;28;20042;-84
2022/03/22 18:26:17;;;;;;;27.50;14.35;;;16.40;81.50;;;;;;5018517;28;20037;-83
2022/03/22 18:28:44;;;;;;;26.15;14.43;;;16.30;85.80;;;;;;5001008;28;20045;-84
2022/03/22 18:31:11;;;;;;;27.33;14.85;;;16.10;88.10;;;;;;5017913;28;20041;-84
2022/03/22 18:33:37;;;;;;;29.50;14.68;;;16.10;90.10;;;;;;5017054;28;20064;-83
2022/03/22 18:36:03;;;;;;;29.00;13.93;;;16.00;90.00;;;;;;5000229;28;20107;-89
2022/03/22 18:38:31;;;;;;;25.95;14.40;;;15.90;90.60;;;;;;5000808;28;20450;-84
2022/03/22 18:40:57;;;;;;;30.35;15.80;;;15.80;91.10;;;;;;5017041;28;20038;-83
2022/03/22 18:43:24;;;;;;;26.98;14.95;;;15.80;92.10;;;;;;5001636;28;20505;-84
2022/03/22 18:55:35;;;;;;;36.28;17.08;;;15.40;95.80;;;;;;4957950;29;20038;-84
2022/03/22 18:58:30;;;;;;;38.10;17.13;;;15.20;98.40;;;;;;4952638;29;20059;-83
2022/03/22 19:01:31;;;;;;;25.73;15.40;;;15.20;97.50;;;;;;4957852;29;20130;-83
2022/03/22 19:04:00;;;;;;;29.98;16.33;;;15.00;99.50;;;;;;4941499;29;20521;-84
2022/03/22 19:06:47;;;;;;;;;;;;;;;;;;;;;
2022/03/22 19:09:15;;;;;;;29.98;15.48;;;14.80;99.90;;;;;;4979537;28;20084;-84
2022/03/22 19:11:41;;;;;;;29.45;16.23;;;14.70;99.90;;;;;;4980167;28;20050;-83
2022/03/22 19:14:10;;;;;;;27.88;16.35;;;14.60;99.90;;;;;;4996620;28;20117;-83
2022/03/22 19:19:42;;;;;;;29.00;15.93;;;14.50;99.90;;;;;;4979932;28;20077;-84
2022/03/22 19:22:08;;;;;;;29.10;15.27;;;14.40;99.90;;;;;;4982980;28;20062;-83
2022/03/22 19:24:35;;;;;;;32.47;16.00;;;14.30;99.90;;;;;;5017329;28;20092;-84
2022/03/22 19:27:02;;;;;;;35.55;16.75;;;14.20;99.90;;;;;;5018035;28;20073;-84
2022/03/22 19:29:47;;;;;;;;;;;;;;;;;;;;;
2022/03/22 19:35:04;;;;;;;31.45;16.73;;;13.90;99.90;;;;;;5015592;28;20049;-83
2022/03/22 19:37:47;;;;;;;31.67;17.42;;;13.90;99.90;;;;;;5017394;28;20062;-86
2022/03/22 20:28:49;;;;;;;;;;;;;;;;;;;;;
2022/03/22 20:32:02;;;;;;;;;;;;;;;;;;;;;
2022/03/22 20:35:02;;;;;;;28.10;16.55;;;12.20;99.90;;;;;;4954361;28;20054;-82
2022/03/22 20:37:56;;;;;;;;;;;12.20;99.90;;;;;;4999887;28;20077;-84
2022/03/22 20:40:41;;;;;;;;;;;;;;;;;;;;;
2022/03/22 20:50:20;;;;;;;;;;;;;;;;;;;;;
2022/03/22 20:53:08;;;;;;;;;;;;;;;;;;;;;
2022/03/22 21:05:55;;;;;;;;;;;;;;;;;;;;;
2022/03/22 21:08:34;;;;;;;36.65;19.13;;;11.80;99.90;;;;;;5033502;28;20053;-83
2022/03/22 21:11:20;;;;;;;35.53;18.77;;;11.70;99.90;;;;;;5033938;28;20049;-83
2022/03/22 21:13:47;;;;;;;;;;;11.60;99.90;;;;;;5031336;28;20063;-84
2022/03/22 21:16:12;;;;;;;40.05;18.73;;;11.50;99.90;;;;;;5034356;28;19917;-86
2022/03/22 21:18:39;;;;;;;36.63;18.95;;;11.50;99.90;;;;;;5017317;28;20463;-78
2022/03/22 21:21:06;;;;;;;33.15;19.02;;;11.50;99.90;;;;;;5034059;28;20041;-81
2022/03/22 21:23:35;;;;;;;34.17;19.50;;;11.40;99.90;;;;;;5033959;28;20374;-87
2022/03/22 21:26:10;;;;;;;35.50;18.92;;;11.30;99.90;;;;;;5018321;28;20041;-85
2022/03/22 21:54:23;;;;;;;37.30;20.40;;;10.90;99.90;;;;;;4641259;22;20050;-84
2022/03/22 21:56:49;;;;;;;34.45;18.98;;;10.90;99.90;;;;;;5004155;28;20048;-84
2022/03/22 21:59:18;;;;;;;37.95;21.10;;;10.80;99.90;;;;;;5020429;28;20041;-83
2022/03/22 22:02:25;;;;;;;38.58;20.80;;;10.70;99.90;;;;;;5037153;23;20037;-83
2022/03/22 22:05:22;;;;;;;;;;;;;;;;;;;;;
2022/03/22 22:07:48;;;;;;;39.08;21.15;;;10.70;99.90;;;;;;5038223;28;20127;-80
2022/03/22 22:10:13;;;;;;;37.15;19.02;;;10.60;99.90;;;;;;5038076;28;20029;-83
2022/03/22 22:12:39;;;;;;;34.58;19.92;;;10.60;99.90;;;;;;5036494;28;20411;-83
2022/03/22 22:15:05;;;;;;;35.13;20.20;;;10.50;99.90;;;;;;5037308;28;20045;-82
2022/03/22 22:17:31;;;;;;;40.17;20.65;;;10.50;99.90;;;;;;5038169;28;20045;-83
2022/03/22 22:19:56;;;;;;;36.15;20.13;;;10.50;99.90;;;;;;5037577;28;20042;-83
2022/03/22 22:22:25;;;;;;;40.55;20.42;;;10.40;99.90;;;;;;5037172;28;20077;-82
2022/03/22 22:24:50;;;;;;;38.45;20.25;;;10.40;99.90;;;;;;5037648;28;20406;-83
2022/03/22 22:27:16;;;;;;;43.30;21.02;;;10.30;99.90;;;;;;5021358;28;20056;-83
2022/03/22 22:29:42;;;;;;;38.88;19.67;;;10.30;99.90;;;;;;5037609;28;20549;-83
2022/03/22 22:34:52;;;;;;;36.67;19.80;;;10.20;99.90;;;;;;5037471;28;20135;-83
2022/03/22 22:37:18;;;;;;;35.40;19.25;;;10.20;99.90;;;;;;5037177;28;20042;-83
2022/03/22 22:39:44;;;;;;;38.65;20.63;;;10.20;99.90;;;;;;5037157;28;20053;-84
2022/03/22 22:42:10;;;;;;;37.88;20.65;;;10.10;99.90;;;;;;5036795;28;20033;-82
2022/03/22 22:44:35;;;;;;;41.30;21.42;;;10.10;99.90;;;;;;5020707;28;20098;-82
2022/03/22 22:47:01;;;;;;;41.17;21.55;;;10.10;99.90;;;;;;5036268;28;20052;-82
2022/03/22 22:49:27;;;;;;;39.90;21.08;;;10.00;99.90;;;;;;5037279;28;20045;-84
2022/03/22 22:51:52;;;;;;;42.92;21.98;;;9.90;99.90;;;;;;5019658;28;20041;-82
2022/03/22 22:54:18;;;;;;;41.08;21.42;;;9.80;99.90;;;;;;5036939;28;20045;-82
2022/03/22 22:56:45;;;;;;;46.28;21.80;;;9.80;99.90;;;;;;5020355;28;20080;-82
2022/03/22 22:59:10;;;;;;;38.28;20.52;;;9.70;99.90;;;;;;5036965;28;20057;-82
2022/03/22 23:01:40;;;;;;;42.17;22.85;;;9.70;99.90;;;;;;5036664;28;20029;-84
2022/03/22 23:04:09;;;;;;;42.75;22.40;;;9.70;99.90;;;;;;5037384;28;20048;-83
2022/03/22 23:12:03;;;;;;;40.95;22.17;;;9.50;99.90;;;;;;5036430;28;20049;-84
2022/03/22 23:14:30;;;;;;;40.88;21.23;;;9.40;99.90;;;;;;5036476;28;20052;-84
